sensor_id;sensor_type;location;lat;lon;timestamp;pressure;altitude;pressure_sealevel;temperature;humidity
60852;BME280;48553;50.766;2.900;2023-04-07T00:00:06;100920.63;;;9.50;84.68
60852;BME280;48553;50.766;2.900;2023-04-07T00:03:07;100925.44;;;9.45;84.66
60852;BME280;48553;50.766;2.900;2023-04-07T00:06:08;100924.50;;;9.40;84.73
60852;BME280;48553;50.766;2.900;2023-04-07T00:09:08;100926.91;;;9.42;84.71
60852;BME280;48553;50.766;2.900;2023-04-07T00:12:10;100931.91;;;9.40;84.83
60852;BME280;48553;50.766;2.900;2023-04-07T00:15:10;100928.22;;;9.36;84.77
60852;BME280;48553;50.766;2.900;2023-04-07T00:18:11;100934.50;;;9.36;84.72
60852;BME280;48553;50.766;2.900;2023-04-07T00:21:11;100931.75;;;9.36;84.71
60852;BME280;48553;50.766;2.900;2023-04-07T00:24:12;100935.59;;;9.35;84.74
60852;BME280;48553;50.766;2.900;2023-04-07T00:27:12;100927.75;;;9.34;84.46
60852;BME280;48553;50.766;2.900;2023-04-07T00:30:13;100928.84;;;9.33;84.41
60852;BME280;48553;50.766;2.900;2023-04-07T00:33:14;100927.25;;;9.32;84.23
60852;BME280;48553;50.766;2.900;2023-04-07T00:36:15;100926.78;;;9.30;84.13
60852;BME280;48553;50.766;2.900;2023-04-07T00:39:15;100924.84;;;9.30;84.36
60852;BME280;48553;50.766;2.900;2023-04-07T00:42:17;100923.22;;;9.29;84.13
60852;BME280;48553;50.766;2.900;2023-04-07T00:45:17;100925.47;;;9.27;84.44
60852;BME280;48553;50.766;2.900;2023-04-07T00:48:18;100929.66;;;9.25;84.19
60852;BME280;48553;50.766;2.900;2023-04-07T00:51:20;100927.91;;;9.20;84.30
60852;BME280;48553;50.766;2.900;2023-04-07T00:54:24;100918.06;;;9.19;84.35
60852;BME280;48553;50.766;2.900;2023-04-07T00:57:25;100922.44;;;9.20;84.14
60852;BME280;48553;50.766;2.900;2023-04-07T01:00:26;100914.84;;;9.17;83.98
60852;BME280;48553;50.766;2.900;2023-04-07T01:03:34;100918.41;;;9.17;84.17
60852;BME280;48553;50.766;2.900;2023-04-07T01:06:39;100909.38;;;9.17;84.01
60852;BME280;48553;50.766;2.900;2023-04-07T01:10:01;100926.44;;;9.14;83.98
60852;BME280;48553;50.766;2.900;2023-04-07T01:13:09;100925.31;;;9.15;83.88
60852;BME280;48553;50.766;2.900;2023-04-07T01:16:40;100934.97;;;9.12;83.81
60852;BME280;48553;50.766;2.900;2023-04-07T01:20:03;100938.84;;;9.11;83.84
60852;BME280;48553;50.766;2.900;2023-04-07T01:23:07;100941.72;;;9.06;84.08
60852;BME280;48553;50.766;2.900;2023-04-07T01:26:27;100944.94;;;9.08;83.68
60852;BME280;48553;50.766;2.900;2023-04-07T01:29:41;100952.31;;;9.08;83.93
60852;BME280;48553;50.766;2.900;2023-04-07T01:32:51;100946.38;;;9.06;84.33
60852;BME280;48553;50.766;2.900;2023-04-07T01:35:53;100950.75;;;9.07;84.38
60852;BME280;48553;50.766;2.900;2023-04-07T01:38:54;100944.78;;;9.05;84.44
60852;BME280;48553;50.766;2.900;2023-04-07T01:41:56;100931.59;;;9.07;84.63
60852;BME280;48553;50.766;2.900;2023-04-07T01:44:57;100936.56;;;9.05;85.02
60852;BME280;48553;50.766;2.900;2023-04-07T01:48:00;100926.75;;;9.04;84.76
60852;BME280;48553;50.766;2.900;2023-04-07T01:51:03;100930.31;;;9.04;84.83
60852;BME280;48553;50.766;2.900;2023-04-07T01:54:04;100925.47;;;9.01;85.14
60852;BME280;48553;50.766;2.900;2023-04-07T01:57:04;100939.78;;;8.98;85.21
60852;BME280;48553;50.766;2.900;2023-04-07T02:00:05;100938.03;;;9.02;84.86
60852;BME280;48553;50.766;2.900;2023-04-07T02:03:11;100929.66;;;8.98;85.18
60852;BME280;48553;50.766;2.900;2023-04-07T02:06:22;100931.28;;;8.99;85.12
60852;BME280;48553;50.766;2.900;2023-04-07T02:09:28;100937.84;;;8.98;84.97
60852;BME280;48553;50.766;2.900;2023-04-07T02:12:30;100926.78;;;8.95;85.17
60852;BME280;48553;50.766;2.900;2023-04-07T02:15:32;100935.47;;;8.97;84.81
60852;BME280;48553;50.766;2.900;2023-04-07T02:18:34;100937.38;;;8.96;84.75
60852;BME280;48553;50.766;2.900;2023-04-07T02:21:38;100939.78;;;8.98;85.07
60852;BME280;48553;50.766;2.900;2023-04-07T02:24:41;100936.88;;;8.94;84.95
60852;BME280;48553;50.766;2.900;2023-04-07T02:27:41;100940.94;;;8.97;84.83
60852;BME280;48553;50.766;2.900;2023-04-07T02:30:42;100937.53;;;8.91;84.88
60852;BME280;48553;50.766;2.900;2023-04-07T02:33:42;100934.78;;;8.91;85.02
60852;BME280;48553;50.766;2.900;2023-04-07T02:36:43;100950.41;;;8.91;84.90
60852;BME280;48553;50.766;2.900;2023-04-07T02:39:43;100943.78;;;8.92;84.95
60852;BME280;48553;50.766;2.900;2023-04-07T02:42:44;100943.31;;;8.90;85.05
60852;BME280;48553;50.766;2.900;2023-04-07T02:45:45;100944.44;;;8.89;85.13
60852;BME280;48553;50.766;2.900;2023-04-07T02:48:45;100943.47;;;8.85;84.79
60852;BME280;48553;50.766;2.900;2023-04-07T02:51:45;100945.72;;;8.83;84.93
60852;BME280;48553;50.766;2.900;2023-04-07T02:54:46;100948.78;;;8.81;84.56
60852;BME280;48553;50.766;2.900;2023-04-07T02:57:46;100951.50;;;8.81;84.75
60852;BME280;48553;50.766;2.900;2023-04-07T03:00:47;100943.63;;;8.80;84.76
60852;BME280;48553;50.766;2.900;2023-04-07T03:03:48;100949.41;;;8.78;84.80
60852;BME280;48553;50.766;2.900;2023-04-07T03:06:48;100942.66;;;8.75;84.77
60852;BME280;48553;50.766;2.900;2023-04-07T03:09:49;100945.88;;;8.77;84.61
60852;BME280;48553;50.766;2.900;2023-04-07T03:12:49;100948.41;;;8.74;84.80
60852;BME280;48553;50.766;2.900;2023-04-07T03:15:50;100944.88;;;8.73;84.30
60852;BME280;48553;50.766;2.900;2023-04-07T03:18:50;100960.78;;;8.71;84.34
60852;BME280;48553;50.766;2.900;2023-04-07T03:21:51;100957.25;;;8.71;83.98
60852;BME280;48553;50.766;2.900;2023-04-07T03:24:51;100956.28;;;8.67;83.86
60852;BME280;48553;50.766;2.900;2023-04-07T03:27:51;100947.59;;;8.65;84.15
60852;BME280;48553;50.766;2.900;2023-04-07T03:30:52;100958.03;;;8.63;83.95
60852;BME280;48553;50.766;2.900;2023-04-07T03:33:52;100952.56;;;8.63;83.92
60852;BME280;48553;50.766;2.900;2023-04-07T03:36:53;100959.81;;;8.59;83.76
60852;BME280;48553;50.766;2.900;2023-04-07T03:39:53;100958.84;;;8.54;83.75
60852;BME280;48553;50.766;2.900;2023-04-07T03:42:54;100949.84;;;8.54;83.65
60852;BME280;48553;50.766;2.900;2023-04-07T03:45:54;100958.34;;;8.52;83.71
60852;BME280;48553;50.766;2.900;2023-04-07T03:48:55;100969.09;;;8.49;83.48
60852;BME280;48553;50.766;2.900;2023-04-07T03:51:55;100959.91;;;8.45;83.73
60852;BME280;48553;50.766;2.900;2023-04-07T03:54:56;100950.28;;;8.47;83.53
60852;BME280;48553;50.766;2.900;2023-04-07T03:57:56;100962.31;;;8.46;83.58
60852;BME280;48553;50.766;2.900;2023-04-07T04:00:57;100956.38;;;8.44;83.29
60852;BME280;48553;50.766;2.900;2023-04-07T04:03:57;100958.94;;;8.41;83.04
60852;BME280;48553;50.766;2.900;2023-04-07T04:06:58;100964.69;;;8.39;83.31
60852;BME280;48553;50.766;2.900;2023-04-07T04:09:58;100944.59;;;8.35;82.90
60852;BME280;48553;50.766;2.900;2023-04-07T04:12:59;100958.56;;;8.33;82.89
60852;BME280;48553;50.766;2.900;2023-04-07T04:16:00;100957.25;;;8.31;83.16
60852;BME280;48553;50.766;2.900;2023-04-07T04:19:00;100964.94;;;8.29;82.63
60852;BME280;48553;50.766;2.900;2023-04-07T04:22:01;100965.28;;;8.27;82.99
60852;BME280;48553;50.766;2.900;2023-04-07T04:25:01;100960.44;;;8.24;82.74
60852;BME280;48553;50.766;2.900;2023-04-07T04:28:01;100971.34;;;8.24;82.66
60852;BME280;48553;50.766;2.900;2023-04-07T04:31:02;100969.75;;;8.23;82.86
60852;BME280;48553;50.766;2.900;2023-04-07T04:34:03;100968.78;;;8.19;82.73
60852;BME280;48553;50.766;2.900;2023-04-07T04:37:04;100980.81;;;8.18;82.35
60852;BME280;48553;50.766;2.900;2023-04-07T04:40:05;100974.06;;;8.15;82.53
60852;BME280;48553;50.766;2.900;2023-04-07T04:43:07;100975.97;;;8.15;82.58
60852;BME280;48553;50.766;2.900;2023-04-07T04:46:08;100988.31;;;8.12;82.28
60852;BME280;48553;50.766;2.900;2023-04-07T04:49:09;100982.72;;;8.09;82.45
60852;BME280;48553;50.766;2.900;2023-04-07T04:52:09;100993.44;;;8.05;82.59
60852;BME280;48553;50.766;2.900;2023-04-07T04:55:10;100996.16;;;8.05;82.67
60852;BME280;48553;50.766;2.900;2023-04-07T04:58:10;101001.91;;;8.04;82.28
60852;BME280;48553;50.766;2.900;2023-04-07T05:01:11;100999.53;;;8.02;82.31
60852;BME280;48553;50.766;2.900;2023-04-07T05:04:12;101001.47;;;8.02;82.25
60852;BME280;48553;50.766;2.900;2023-04-07T05:07:12;101010.59;;;7.97;82.69
60852;BME280;48553;50.766;2.900;2023-04-07T05:10:13;101007.53;;;7.99;82.42
60852;BME280;48553;50.766;2.900;2023-04-07T05:13:13;101010.88;;;7.95;82.23
60852;BME280;48553;50.766;2.900;2023-04-07T05:16:14;101008.16;;;7.95;82.18
60852;BME280;48553;50.766;2.900;2023-04-07T05:19:14;101002.00;;;7.90;82.47
60852;BME280;48553;50.766;2.900;2023-04-07T05:22:15;101012.91;;;7.90;nan
60852;BME280;48553;50.766;2.900;2023-04-07T05:25:15;101013.25;;;7.88;82.18
60852;BME280;48553;50.766;2.900;2023-04-07T05:28:16;101011.31;;;7.89;82.27
60852;BME280;48553;50.766;2.900;2023-04-07T05:31:16;101018.22;;;7.86;82.07
60852;BME280;48553;50.766;2.900;2023-04-07T05:34:17;101014.97;;;7.84;82.26
60852;BME280;48553;50.766;2.900;2023-04-07T05:37:17;101018.22;;;7.86;82.44
60852;BME280;48553;50.766;2.900;2023-04-07T05:40:18;101034.38;;;7.83;82.38
60852;BME280;48553;50.766;2.900;2023-04-07T05:43:18;101032.16;;;7.85;82.38
60852;BME280;48553;50.766;2.900;2023-04-07T05:46:19;101031.78;;;7.78;82.64
60852;BME280;48553;50.766;2.900;2023-04-07T05:49:19;101033.28;;;7.84;82.37
60852;BME280;48553;50.766;2.900;2023-04-07T05:52:20;101044.00;;;7.80;82.62
60852;BME280;48553;50.766;2.900;2023-04-07T05:55:20;101045.63;;;7.81;82.36
60852;BME280;48553;50.766;2.900;2023-04-07T05:58:20;101059.38;;;7.76;82.83
60852;BME280;48553;50.766;2.900;2023-04-07T06:01:21;101056.63;;;7.76;82.97
60852;BME280;48553;50.766;2.900;2023-04-07T06:04:21;101053.91;;;7.76;82.77
60852;BME280;48553;50.766;2.900;2023-04-07T06:07:21;101059.38;;;7.76;82.94
60852;BME280;48553;50.766;2.900;2023-04-07T06:10:22;101061.00;;;7.77;82.77
60852;BME280;48553;50.766;2.900;2023-04-07T06:13:22;101064.22;;;7.79;83.16
60852;BME280;48553;50.766;2.900;2023-04-07T06:16:23;101079.16;;;7.82;83.31
60852;BME280;48553;50.766;2.900;2023-04-07T06:19:23;101085.72;;;7.81;83.60
60852;BME280;48553;50.766;2.900;2023-04-07T06:22:24;101084.13;;;7.80;83.72
60852;BME280;48553;50.766;2.900;2023-04-07T06:25:24;101085.44;;;7.82;84.05
60852;BME280;48553;50.766;2.900;2023-04-07T06:28:25;101087.03;;;7.83;84.23
60852;BME280;48553;50.766;2.900;2023-04-07T06:31:25;101087.84;;;7.84;84.50
60852;BME280;48553;50.766;2.900;2023-04-07T06:34:26;101092.97;;;7.85;84.78
60852;BME280;48553;50.766;2.900;2023-04-07T06:37:26;101090.75;;;7.87;84.84
60852;BME280;48553;50.766;2.900;2023-04-07T06:40:27;101093.19;;;7.89;85.00
60852;BME280;48553;50.766;2.900;2023-04-07T06:43:27;101099.16;;;7.91;84.99
60852;BME280;48553;50.766;2.900;2023-04-07T06:46:28;101099.94;;;7.91;85.08
60852;BME280;48553;50.766;2.900;2023-04-07T06:49:28;101101.44;;;7.98;84.65
60852;BME280;48553;50.766;2.900;2023-04-07T06:52:29;101105.59;;;7.95;85.06
60852;BME280;48553;50.766;2.900;2023-04-07T06:55:29;101110.44;;;7.98;85.05
60852;BME280;48553;50.766;2.900;2023-04-07T06:58:30;101121.84;;;8.00;84.97
60852;BME280;48553;50.766;2.900;2023-04-07T07:01:31;101114.47;;;8.01;85.28
60852;BME280;48553;50.766;2.900;2023-04-07T07:04:33;101124.28;;;8.02;85.31
60852;BME280;48553;50.766;2.900;2023-04-07T07:07:34;101126.69;;;8.03;85.38
60852;BME280;48553;50.766;2.900;2023-04-07T07:10:34;101121.22;;;8.03;85.93
60852;BME280;48553;50.766;2.900;2023-04-07T07:13:35;101129.91;;;8.05;85.79
60852;BME280;48553;50.766;2.900;2023-04-07T07:16:35;101130.63;;;8.11;85.70
60852;BME280;48553;50.766;2.900;2023-04-07T07:19:36;101136.06;;;8.11;85.60
60852;BME280;48553;50.766;2.900;2023-04-07T07:22:37;101128.06;;;8.14;85.72
60852;BME280;48553;50.766;2.900;2023-04-07T07:25:37;101131.13;;;8.13;86.20
60852;BME280;48553;50.766;2.900;2023-04-07T07:28:38;101134.72;;;8.22;85.73
60852;BME280;48553;50.766;2.900;2023-04-07T07:31:38;101140.34;;;8.26;86.04
60852;BME280;48553;50.766;2.900;2023-04-07T07:34:39;101133.94;;;8.30;85.84
60852;BME280;48553;50.766;2.900;2023-04-07T07:37:39;101130.91;;;8.32;85.78
60852;BME280;48553;50.766;2.900;2023-04-07T07:40:40;101144.94;;;8.39;85.47
60852;BME280;48553;50.766;2.900;2023-04-07T07:43:40;101139.19;;;8.41;85.62
60852;BME280;48553;50.766;2.900;2023-04-07T07:46:40;101136.97;;;8.43;85.51
60852;BME280;48553;50.766;2.900;2023-04-07T07:49:41;101145.53;;;8.50;85.23
60852;BME280;48553;50.766;2.900;2023-04-07T07:52:41;101136.06;;;8.56;85.31
60852;BME280;48553;50.766;2.900;2023-04-07T07:55:42;101136.25;;;8.60;84.73
60852;BME280;48553;50.766;2.900;2023-04-07T07:58:42;101148.47;;;8.62;84.82
60852;BME280;48553;50.766;2.900;2023-04-07T08:01:43;101157.19;;;8.64;84.84
60852;BME280;48553;50.766;2.900;2023-04-07T08:04:43;101152.69;;;8.68;84.57
60852;BME280;48553;50.766;2.900;2023-04-07T08:07:44;101168.97;;;8.73;84.23
60852;BME280;48553;50.766;2.900;2023-04-07T08:10:46;101161.56;;;8.74;84.18
60852;BME280;48553;50.766;2.900;2023-04-07T08:13:46;101161.44;;;8.79;84.21
60852;BME280;48553;50.766;2.900;2023-04-07T08:16:46;101170.16;;;8.81;84.24
60852;BME280;48553;50.766;2.900;2023-04-07T08:19:47;101182.38;;;8.84;84.00
60852;BME280;48553;50.766;2.900;2023-04-07T08:22:47;101179.00;;;8.87;84.11
60852;BME280;48553;50.766;2.900;2023-04-07T08:25:48;101180.00;;;8.91;84.10
60852;BME280;48553;50.766;2.900;2023-04-07T08:28:48;101183.22;;;8.93;84.01
60852;BME280;48553;50.766;2.900;2023-04-07T08:31:52;101179.84;;;8.96;84.11
60852;BME280;48553;50.766;2.900;2023-04-07T08:34:54;101187.91;;;9.01;84.09
60852;BME280;48553;50.766;2.900;2023-04-07T08:37:55;101183.75;;;9.04;84.74
60852;BME280;48553;50.766;2.900;2023-04-07T08:41:23;101189.69;;;9.06;84.12
60852;BME280;48553;50.766;2.900;2023-04-07T08:44:27;101186.34;;;9.09;84.33
60852;BME280;48553;50.766;2.900;2023-04-07T08:47:33;101199.69;;;9.10;84.34
60852;BME280;48553;50.766;2.900;2023-04-07T08:50:34;101193.13;;;9.11;84.21
60852;BME280;48553;50.766;2.900;2023-04-07T08:53:47;101207.28;;;9.13;84.12
60852;BME280;48553;50.766;2.900;2023-04-07T08:56:51;101200.38;;;9.16;83.78
60852;BME280;48553;50.766;2.900;2023-04-07T08:59:52;101208.59;;;9.16;83.94
60852;BME280;48553;50.766;2.900;2023-04-07T09:02:54;101211.31;;;9.16;83.92
60852;BME280;48553;50.766;2.900;2023-04-07T09:05:55;101209.38;;;9.16;83.59
60852;BME280;48553;50.766;2.900;2023-04-07T09:08:58;101211.31;;;9.16;84.07
60852;BME280;48553;50.766;2.900;2023-04-07T09:11:58;101211.81;;;9.18;83.69
60852;BME280;48553;50.766;2.900;2023-04-07T09:14:59;101217.78;;;9.20;84.53
60852;BME280;48553;50.766;2.900;2023-04-07T09:17:59;101218.44;;;9.26;84.15
60852;BME280;48553;50.766;2.900;2023-04-07T09:21:02;101218.22;;;9.53;83.29
60852;BME280;48553;50.766;2.900;2023-04-07T09:24:23;101211.19;;;9.78;85.54
60852;BME280;48553;50.766;2.900;2023-04-07T09:27:23;101214.59;;;9.84;85.18
60852;BME280;48553;50.766;2.900;2023-04-07T09:30:24;101220.56;;;9.86;84.94
60852;BME280;48553;50.766;2.900;2023-04-07T09:33:28;101214.91;;;9.82;85.59
60852;BME280;48553;50.766;2.900;2023-04-07T09:36:40;101222.78;;;9.75;83.04
60852;BME280;48553;50.766;2.900;2023-04-07T09:39:48;101221.81;;;9.71;83.34
60852;BME280;48553;50.766;2.900;2023-04-07T09:42:49;101217.47;;;9.70;83.94
60852;BME280;48553;50.766;2.900;2023-04-07T09:45:50;101218.09;;;9.67;84.38
60852;BME280;48553;50.766;2.900;2023-04-07T09:49:01;101227.13;;;9.68;84.51
60852;BME280;48553;50.766;2.900;2023-04-07T09:52:04;101227.28;;;9.71;83.91
60852;BME280;48553;50.766;2.900;2023-04-07T09:55:06;101231.78;;;9.76;84.45
60852;BME280;48553;50.766;2.900;2023-04-07T09:58:08;101226.81;;;9.78;84.55
60852;BME280;48553;50.766;2.900;2023-04-07T10:01:12;101229.72;;;9.81;83.91
60852;BME280;48553;50.766;2.900;2023-04-07T10:04:13;101235.69;;;9.83;83.79
60852;BME280;48553;50.766;2.900;2023-04-07T10:07:14;101231.19;;;9.88;83.24
60852;BME280;48553;50.766;2.900;2023-04-07T10:10:14;101238.28;;;9.89;83.44
60852;BME280;48553;50.766;2.900;2023-04-07T10:13:15;101235.38;;;9.94;83.48
60852;BME280;48553;50.766;2.900;2023-04-07T10:16:16;101239.28;;;10.01;83.16
60852;BME280;48553;50.766;2.900;2023-04-07T10:19:18;101240.56;;;10.13;83.62
60852;BME280;48553;50.766;2.900;2023-04-07T10:22:19;101243.03;;;10.32;84.20
60852;BME280;48553;50.766;2.900;2023-04-07T10:25:23;101236.59;;;10.54;84.75
60852;BME280;48553;50.766;2.900;2023-04-07T10:28:26;101237.84;;;10.74;84.93
60852;BME280;48553;50.766;2.900;2023-04-07T10:31:27;101235.56;;;10.93;83.85
60852;BME280;48553;50.766;2.900;2023-04-07T10:38:11;101234.00;;;11.31;83.23
60852;BME280;48553;50.766;2.900;2023-04-07T10:41:33;101231.88;;;11.36;84.23
60852;BME280;48553;50.766;2.900;2023-04-07T10:57:18;101250.69;;;11.08;83.51
60852;BME280;48553;50.766;2.900;2023-04-07T11:00:20;101241.94;;;11.23;83.74
60852;BME280;48553;50.766;2.900;2023-04-07T11:03:21;101248.47;;;11.40;83.50
60852;BME280;48553;50.766;2.900;2023-04-07T11:06:22;101244.41;;;11.55;83.43
60852;BME280;48553;50.766;2.900;2023-04-07T11:09:22;101255.63;;;11.70;82.38
60852;BME280;48553;50.766;2.900;2023-04-07T11:12:23;101243.16;;;11.73;82.90
60852;BME280;48553;50.766;2.900;2023-04-07T11:15:23;101244.19;;;11.98;82.10
60852;BME280;48553;50.766;2.900;2023-04-07T11:18:24;101239.31;;;12.04;81.21
60852;BME280;48553;50.766;2.900;2023-04-07T11:21:25;101242.97;;;12.08;81.70
60852;BME280;48553;50.766;2.900;2023-04-07T11:24:35;101245.06;;;12.11;82.07
60852;BME280;48553;50.766;2.900;2023-04-07T11:27:38;101252.38;;;12.07;82.04
60852;BME280;48553;50.766;2.900;2023-04-07T11:30:50;101240.53;;;12.15;81.55
60852;BME280;48553;50.766;2.900;2023-04-07T11:33:53;101253.47;;;12.36;80.63
60852;BME280;48553;50.766;2.900;2023-04-07T11:36:54;101248.81;;;12.48;79.99
60852;BME280;48553;50.766;2.900;2023-04-07T11:39:58;101253.94;;;12.59;80.38
60852;BME280;48553;50.766;2.900;2023-04-07T11:42:59;101259.03;;;12.48;80.63
60852;BME280;48553;50.766;2.900;2023-04-07T11:46:14;101260.34;;;12.42;81.11
60852;BME280;48553;50.766;2.900;2023-04-07T11:49:15;101266.53;;;12.39;80.46
60852;BME280;48553;50.766;2.900;2023-04-07T11:52:16;101267.69;;;12.38;79.17
60852;BME280;48553;50.766;2.900;2023-04-07T11:55:18;101272.16;;;12.63;79.18
60852;BME280;48553;50.766;2.900;2023-04-07T11:58:18;101275.44;;;12.57;79.17
60852;BME280;48553;50.766;2.900;2023-04-07T12:01:20;101278.75;;;12.50;79.13
60852;BME280;48553;50.766;2.900;2023-04-07T12:04:20;101283.44;;;12.49;78.83
60852;BME280;48553;50.766;2.900;2023-04-07T12:07:21;101277.22;;;12.73;78.35
60852;BME280;48553;50.766;2.900;2023-04-07T12:10:23;101276.63;;;12.89;77.47
60852;BME280;48553;50.766;2.900;2023-04-07T12:13:26;101278.31;;;12.81;78.11
60852;BME280;48553;50.766;2.900;2023-04-07T12:16:26;101281.66;;;12.87;78.10
60852;BME280;48553;50.766;2.900;2023-04-07T12:19:27;101285.88;;;12.84;78.54
60852;BME280;48553;50.766;2.900;2023-04-07T12:22:28;101278.97;;;12.78;78.09
60852;BME280;48553;50.766;2.900;2023-04-07T12:25:28;101283.63;;;12.99;77.12
60852;BME280;48553;50.766;2.900;2023-04-07T12:28:29;101281.97;;;13.19;76.86
60852;BME280;48553;50.766;2.900;2023-04-07T12:31:30;101288.69;;;13.30;76.50
60852;BME280;48553;50.766;2.900;2023-04-07T12:34:31;101290.56;;;13.17;76.74
60852;BME280;48553;50.766;2.900;2023-04-07T12:37:32;101284.16;;;13.25;76.38
60852;BME280;48553;50.766;2.900;2023-04-07T12:40:32;101293.22;;;13.26;76.91
60852;BME280;48553;50.766;2.900;2023-04-07T12:43:34;101295.88;;;13.22;76.65
60852;BME280;48553;50.766;2.900;2023-04-07T12:46:34;101296.34;;;13.24;76.23
60852;BME280;48553;50.766;2.900;2023-04-07T12:49:35;101297.38;;;13.20;75.73
60852;BME280;48553;50.766;2.900;2023-04-07T12:52:35;101303.75;;;13.11;75.18
60852;BME280;48553;50.766;2.900;2023-04-07T12:55:36;101313.81;;;13.07;75.46
60852;BME280;48553;50.766;2.900;2023-04-07T12:58:36;101310.97;;;13.16;75.25
60852;BME280;48553;50.766;2.900;2023-04-07T13:01:37;101301.13;;;13.15;75.53
60852;BME280;48553;50.766;2.900;2023-04-07T13:04:38;101322.88;;;13.08;73.96
60852;BME280;48553;50.766;2.900;2023-04-07T13:07:39;101320.34;;;13.03;75.32
60852;BME280;48553;50.766;2.900;2023-04-07T13:10:40;101315.38;;;12.96;75.42
60852;BME280;48553;50.766;2.900;2023-04-07T13:13:40;101311.38;;;12.93;76.42
60852;BME280;48553;50.766;2.900;2023-04-07T13:16:41;101316.41;;;12.91;76.09
60852;BME280;48553;50.766;2.900;2023-04-07T13:19:41;101317.41;;;12.87;76.36
60852;BME280;48553;50.766;2.900;2023-04-07T13:22:42;101324.72;;;12.83;76.05
60852;BME280;48553;50.766;2.900;2023-04-07T13:25:42;101326.56;;;12.79;75.83
60852;BME280;48553;50.766;2.900;2023-04-07T13:28:43;101325.16;;;12.72;76.52
60852;BME280;48553;50.766;2.900;2023-04-07T13:31:45;101337.88;;;12.77;76.89
60852;BME280;48553;50.766;2.900;2023-04-07T13:34:46;101336.25;;;12.76;76.95
60852;BME280;48553;50.766;2.900;2023-04-07T13:37:46;101330.91;;;12.80;75.55
60852;BME280;48553;50.766;2.900;2023-04-07T13:40:46;101328.00;;;12.76;74.13
60852;BME280;48553;50.766;2.900;2023-04-07T13:43:48;101327.69;;;12.78;75.64
60852;BME280;48553;50.766;2.900;2023-04-07T13:46:49;101330.31;;;12.74;76.51
60852;BME280;48553;50.766;2.900;2023-04-07T13:49:49;101335.34;;;12.72;75.91
60852;BME280;48553;50.766;2.900;2023-04-07T13:52:51;101330.66;;;12.72;75.94
60852;BME280;48553;50.766;2.900;2023-04-07T13:55:51;101329.31;;;12.79;75.27
60852;BME280;48553;50.766;2.900;2023-04-07T13:58:52;101339.00;;;12.76;75.48
60852;BME280;48553;50.766;2.900;2023-04-07T14:01:53;101335.81;;;12.74;75.85
60852;BME280;48553;50.766;2.900;2023-04-07T14:04:53;101332.72;;;12.75;75.50
60852;BME280;48553;50.766;2.900;2023-04-07T14:07:54;101337.28;;;12.71;74.93
60852;BME280;48553;50.766;2.900;2023-04-07T14:10:54;101333.88;;;12.74;74.79
60852;BME280;48553;50.766;2.900;2023-04-07T14:13:54;101332.72;;;12.75;75.60
60852;BME280;48553;50.766;2.900;2023-04-07T14:16:59;101340.03;;;12.71;76.39
60852;BME280;48553;50.766;2.900;2023-04-07T14:19:59;101335.19;;;12.68;77.05
60852;BME280;48553;50.766;2.900;2023-04-07T14:23:00;101333.94;;;12.66;76.61
60852;BME280;48553;50.766;2.900;2023-04-07T14:26:00;101343.31;;;12.65;76.47
60852;BME280;48553;50.766;2.900;2023-04-07T14:29:01;101339.28;;;12.62;76.21
60852;BME280;48553;50.766;2.900;2023-04-07T14:32:02;101351.44;;;12.61;76.66
60852;BME280;48553;50.766;2.900;2023-04-07T14:35:02;101336.88;;;12.61;76.54
60852;BME280;48553;50.766;2.900;2023-04-07T14:38:03;101325.47;;;12.71;75.94
60852;BME280;48553;50.766;2.900;2023-04-07T14:41:03;101334.19;;;12.73;76.37
60852;BME280;48553;50.766;2.900;2023-04-07T14:44:04;101327.44;;;12.70;76.82
60852;BME280;48553;50.766;2.900;2023-04-07T14:47:05;101339.09;;;12.67;75.04
60852;BME280;48553;50.766;2.900;2023-04-07T14:50:06;101338.69;;;12.57;74.12
60852;BME280;48553;50.766;2.900;2023-04-07T14:53:07;101343.09;;;12.49;74.67
60852;BME280;48553;50.766;2.900;2023-04-07T14:56:07;101339.38;;;12.53;74.71
60852;BME280;48553;50.766;2.900;2023-04-07T14:59:08;101341.13;;;12.58;75.92
60852;BME280;48553;50.766;2.900;2023-04-07T15:02:08;101340.13;;;12.63;75.31
60852;BME280;48553;50.766;2.900;2023-04-07T15:05:09;101347.22;;;12.64;75.49
60852;BME280;48553;50.766;2.900;2023-04-07T15:08:09;101343.03;;;12.58;75.69
60852;BME280;48553;50.766;2.900;2023-04-07T15:11:10;101345.31;;;12.56;75.67
60852;BME280;48553;50.766;2.900;2023-04-07T15:14:11;101343.25;;;12.52;76.07
60852;BME280;48553;50.766;2.900;2023-04-07T15:17:11;101348.94;;;12.47;75.64
60852;BME280;48553;50.766;2.900;2023-04-07T15:20:12;101354.28;;;12.44;75.06
60852;BME280;48553;50.766;2.900;2023-04-07T15:23:12;101349.81;;;12.39;75.40
60852;BME280;48553;50.766;2.900;2023-04-07T15:26:13;101354.03;;;12.37;74.32
60852;BME280;48553;50.766;2.900;2023-04-07T15:29:14;101355.03;;;12.32;73.91
60852;BME280;48553;50.766;2.900;2023-04-07T15:32:14;101354.22;;;12.31;74.04
60852;BME280;48553;50.766;2.900;2023-04-07T15:35:15;101366.69;;;12.29;74.12
60852;BME280;48553;50.766;2.900;2023-04-07T15:38:16;101357.63;;;12.28;74.80
60852;BME280;48553;50.766;2.900;2023-04-07T15:41:17;101367.81;;;12.28;74.86
60852;BME280;48553;50.766;2.900;2023-04-07T15:44:17;101353.28;;;12.27;74.70
60852;BME280;48553;50.766;2.900;2023-04-07T15:47:18;101361.19;;;12.29;74.85
60852;BME280;48553;50.766;2.900;2023-04-07T15:50:18;101364.75;;;12.29;72.98
60852;BME280;48553;50.766;2.900;2023-04-07T15:53:19;101354.22;;;12.31;73.32
60852;BME280;48553;50.766;2.900;2023-04-07T15:56:19;101355.03;;;12.32;73.86
60852;BME280;48553;50.766;2.900;2023-04-07T15:59:23;101352.59;;;12.30;73.08
60852;BME280;48553;50.766;2.900;2023-04-07T16:02:24;101362.59;;;12.35;72.90
60852;BME280;48553;50.766;2.900;2023-04-07T16:05:24;101371.03;;;12.30;73.88
60852;BME280;48553;50.766;2.900;2023-04-07T16:08:25;101372.03;;;12.25;74.52
60852;BME280;48553;50.766;2.900;2023-04-07T16:11:25;101362.84;;;12.21;74.61
60852;BME280;48553;50.766;2.900;2023-04-07T16:14:26;101365.09;;;12.19;75.00